Time;durP1;ratioP1;P1;durP2;ratioP2;P2;SDS_P1;SDS_P2;PMS_P1;PMS_P2;Temp;Humidity;BMP_temperature;BMP_pressure;BME280_temperature;BME280_humidity;BME280_pressure;Samples;Min_cycle;Max_cycle;Signal;HPM_P1;HPM_P2
2022/09/19 00:01:52;;;;;;;9.20;2.85;;;;;;;10.14;100.00;101657.31;5071530;28;20049;-50
2022/09/19 00:04:25;;;;;;;12.23;3.05;;;;;;;10.13;100.00;101655.69;5071945;28;20040;-50
2022/09/19 00:06:54;;;;;;;12.35;3.15;;;;;;;10.13;100.00;101657.59;5072122;28;20409;-49
2022/09/19 00:09:25;;;;;;;12.15;3.28;;;;;;;10.11;100.00;101666.00;5069155;28;20086;-52
2022/09/19 00:11:53;;;;;;;11.73;2.92;;;;;;;10.11;100.00;101652.38;5069363;28;20060;-55
2022/09/19 00:14:24;;;;;;;12.82;3.08;;;;;;;10.12;100.00;101655.91;5055435;28;20036;-50
2022/09/19 00:16:58;;;;;;;13.35;3.50;;;;;;;10.11;100.00;101660.53;5073204;28;20041;-49
2022/09/19 00:19:26;;;;;;;9.10;2.90;;;;;;;10.09;100.00;101659.97;5071781;28;20058;-47
2022/09/19 00:21:57;;;;;;;10.30;3.00;;;;;;;10.09;100.00;101646.34;5062580;28;20048;-50
2022/09/19 00:27:14;;;;;;;12.80;3.00;;;;;;;10.09;100.00;101650.97;5068064;28;20041;-50
2022/09/19 00:29:42;;;;;;;8.45;2.42;;;;;;;10.11;100.00;101649.66;5066557;28;20053;-50
2022/09/19 00:32:12;;;;;;;11.02;3.05;;;;;;;10.11;100.00;101648.81;5071164;28;20086;-49
2022/09/19 00:34:42;;;;;;;9.15;2.83;;;;;;;10.10;100.00;101653.47;5063236;28;20411;-49
2022/09/19 00:37:10;;;;;;;15.52;3.10;;;;;;;10.08;100.00;101644.69;5061485;28;20033;-50
2022/09/19 00:39:38;;;;;;;13.05;3.20;;;;;;;10.10;100.00;101652.59;5064116;28;20048;-52
2022/09/19 00:42:23;;;;;;;12.30;3.30;;;;;;;10.10;100.00;101661.63;5046776;28;20113;-52
2022/09/19 00:44:59;;;;;;;9.73;2.78;;;;;;;10.10;100.00;101664.34;5072882;28;20093;-51
2022/09/19 00:47:33;;;;;;;14.75;3.45;;;;;;;10.09;100.00;101659.97;5062182;28;20517;-50
2022/09/19 00:50:05;;;;;;;10.77;2.97;;;;;;;10.10;100.00;101664.34;5069545;28;20044;-48
2022/09/19 00:53:04;;;;;;;8.55;2.83;;;;;;;10.10;100.00;101664.34;5060881;28;20051;-50
2022/09/19 00:55:32;;;;;;;9.52;3.03;;;;;;;10.11;100.00;101665.16;5061922;28;20037;-51
2022/09/19 00:58:26;;;;;;;11.98;3.28;;;;;;;10.12;100.00;101669.53;5068259;28;20041;-49
2022/09/19 01:00:54;;;;;;;9.18;3.00;;;;;;;10.10;100.00;101674.38;5069754;28;20449;-51
2022/09/19 01:03:24;;;;;;;11.23;2.95;;;;;;;10.09;100.00;101673.56;5067997;28;20490;-48
2022/09/19 01:06:14;;;;;;;12.68;3.10;;;;;;;10.08;100.00;101677.38;5061481;28;20049;-49
2022/09/19 01:08:43;;;;;;;14.07;3.28;;;;;;;10.08;100.00;101671.94;5068866;28;20036;-48
2022/09/19 01:11:40;;;;;;;15.88;3.55;;;;;;;10.07;100.00;101683.88;5071276;28;20052;-52
2022/09/19 01:14:26;;;;;;;9.48;2.85;;;;;;;10.08;100.00;101681.97;5068116;28;20537;-49
2022/09/19 01:17:12;;;;;;;12.27;3.10;;;;;;;10.07;100.00;101678.44;5075338;28;20049;-50
2022/09/19 01:19:53;;;;;;;12.48;3.28;;;;;;;10.08;100.00;101688.28;5060454;28;20051;-51
2022/09/19 01:22:35;;;;;;;12.93;3.45;;;;;;;10.10;100.00;101679.84;5059567;28;20133;-50
2022/09/19 01:25:15;;;;;;;12.88;2.90;;;;;;;10.09;100.00;101689.91;5057532;28;20048;-51
2022/09/19 01:28:08;;;;;;;11.13;2.83;;;;;;;10.07;100.00;101686.59;5056329;28;20041;-49
2022/09/19 01:31:16;;;;;;;10.00;3.38;;;;;;;10.06;100.00;101681.41;5074874;28;20056;-49
2022/09/19 01:33:38;;;;;;;11.77;3.35;;;;;;;10.05;100.00;101690.63;5060401;28;20047;-54
2022/09/19 01:36:07;;;;;;;16.15;3.35;;;;;;;10.04;100.00;101689.81;5058283;28;20503;-50
2022/09/19 01:38:37;;;;;;;9.20;2.90;;;;;;;10.03;100.00;101690.91;5056627;28;20041;-51
2022/09/19 01:41:09;;;;;;;8.50;2.88;;;;;;;10.02;100.00;101689.22;5055471;28;20056;-52
2022/09/19 01:43:37;;;;;;;13.05;3.38;;;;;;;10.01;100.00;101688.41;5057356;28;20028;-49
2022/09/19 01:46:13;;;;;;;13.68;2.95;;;;;;;10.01;100.00;101682.13;5051935;28;20461;-50
2022/09/19 01:48:46;;;;;;;14.85;3.00;;;;;;;10.01;100.00;101691.13;5066720;28;20041;-49
2022/09/19 01:51:42;;;;;;;10.25;3.47;;;;;;;10.00;100.00;101694.09;5044907;28;20427;-49
2022/09/19 01:54:21;;;;;;;10.10;2.83;;;;;;;9.99;100.00;101695.16;5072504;28;20044;-53
2022/09/19 01:57:13;;;;;;;12.27;3.15;;;;;;;10.00;100.00;101702.25;5078819;28;20041;-52
2022/09/19 01:59:54;;;;;;;13.15;3.08;;;;;;;10.00;100.00;101707.69;5057724;28;20056;-52
2022/09/19 02:02:56;;;;;;;12.18;3.15;;;;;;;9.99;100.00;101706.88;5055844;28;20044;-51
2022/09/19 02:05:52;;;;;;;10.45;2.70;;;;;;;9.97;100.00;101709.00;5070748;28;20044;-49
2022/09/19 02:08:32;;;;;;;8.80;2.63;;;;;;;9.97;100.00;101713.63;5057517;28;20384;-49
2022/09/19 02:11:11;;;;;;;10.90;3.20;;;;;;;9.95;100.00;101710.31;5053027;28;20332;-49
2022/09/19 02:13:48;;;;;;;11.77;2.90;;;;;;;9.95;100.00;101707.59;5067400;28;20055;-49
2022/09/19 02:16:40;;;;;;;15.63;3.35;;;;;;;9.94;100.00;101703.25;5067176;28;20044;-53
2022/09/19 02:19:18;;;;;;;11.18;3.13;;;;;;;9.93;100.00;101707.00;5074047;28;20399;-49
2022/09/19 02:21:50;;;;;;;11.32;3.00;;;;;;;9.95;100.00;101704.88;5055986;28;20057;-53
2022/09/19 02:24:27;;;;;;;10.02;2.80;;;;;;;9.93;100.00;101705.13;5071339;28;20052;-50
2022/09/19 02:27:00;;;;;;;8.88;2.80;;;;;;;9.92;100.00;101708.09;5054362;28;20037;-52
2022/09/19 02:29:32;;;;;;;9.80;2.78;;;;;;;9.93;100.00;101712.44;5044778;28;20047;-53
2022/09/19 02:32:02;;;;;;;8.65;2.72;;;;;;;9.92;100.00;101710.81;5073618;28;20094;-50
2022/09/19 02:34:32;;;;;;;19.38;4.00;;;;;;;9.92;100.00;101710.81;5072947;28;20032;-49
2022/09/19 02:37:08;;;;;;;10.30;3.13;;;;;;;9.93;100.00;101712.44;5053825;28;20048;-49
2022/09/19 02:40:10;;;;;;;9.55;2.67;;;;;;;9.90;100.00;101708.31;5032761;28;20094;-50
2022/09/19 02:42:59;;;;;;;11.65;3.17;;;;;;;9.90;100.00;101710.22;5073289;28;20060;-49
2022/09/19 02:45:38;;;;;;;8.82;3.05;;;;;;;9.91;100.00;101714.59;5073649;28;20034;-49
2022/09/19 02:48:15;;;;;;;10.55;2.70;;;;;;;9.91;100.00;101714.59;5053952;28;20194;-49
2022/09/19 02:50:47;;;;;;;11.60;2.97;;;;;;;9.91;100.00;101722.75;5054302;28;20042;-49
2022/09/19 02:53:21;;;;;;;12.73;3.20;;;;;;;9.90;100.00;101716.50;5066462;28;20041;-50
2022/09/19 02:55:55;;;;;;;11.07;2.97;;;;;;;9.91;100.00;101720.03;5053775;28;20052;-49
2022/09/19 02:58:26;;;;;;;10.80;2.80;;;;;;;9.90;100.00;101718.38;5051869;28;20525;-48
2022/09/19 03:00:59;;;;;;;14.93;3.45;;;;;;;9.90;100.00;101723.84;5056043;28;20036;-52
2022/09/19 03:06:21;;;;;;;11.88;3.13;;;;;;;9.87;100.00;101724.31;5047222;28;20040;-51
2022/09/19 03:08:50;;;;;;;13.15;3.10;;;;;;;9.87;100.00;101722.44;5071453;28;20032;-50
2022/09/19 03:11:22;;;;;;;12.95;2.92;;;;;;;9.87;100.00;101725.16;5064939;28;20057;-51
2022/09/19 03:13:50;;;;;;;9.32;2.67;;;;;;;9.88;100.00;101725.97;5054229;28;20528;-51
2022/09/19 03:16:26;;;;;;;14.93;3.13;;;;;;;9.87;100.00;101719.69;5087942;28;20049;-48
2022/09/19 03:18:55;;;;;;;16.50;3.08;;;;;;;9.86;100.00;101733.53;5064733;28;20098;-50
2022/09/19 03:21:25;;;;;;;13.80;2.72;;;;;;;9.85;100.00;101731.91;5053190;28;20094;-53
2022/09/19 03:23:58;;;;;;;11.85;3.00;;;;;;;9.84;100.00;101731.06;5055898;28;20040;-49
2022/09/19 03:26:30;;;;;;;11.68;2.90;;;;;;;9.85;100.00;101734.63;5035283;28;20109;-47
2022/09/19 03:29:02;;;;;;;11.80;2.90;;;;;;;9.85;100.00;101731.91;5069521;28;20041;-49
2022/09/19 03:31:36;;;;;;;11.98;2.88;;;;;;;9.85;100.00;101719.09;5053698;28;20052;-49
2022/09/19 03:34:07;;;;;;;9.80;2.70;;;;;;;9.87;100.00;101724.31;5056645;28;20033;-49
2022/09/19 03:36:35;;;;;;;9.38;2.92;;;;;;;9.87;100.00;101724.31;5073713;28;20036;-49
2022/09/19 03:39:05;;;;;;;13.73;3.42;;;;;;;9.87;100.00;101724.31;5071769;28;20033;-49
2022/09/19 03:41:39;;;;;;;17.55;3.30;;;;;;;9.87;100.00;101732.50;5040842;28;20058;-50
2022/09/19 03:44:08;;;;;;;11.23;2.80;;;;;;;9.87;100.00;101724.31;5054431;28;20098;-53
2022/09/19 03:46:38;;;;;;;12.38;3.15;;;;;;;9.87;100.00;101730.59;5075070;28;20047;-51
2022/09/19 03:49:05;;;;;;;12.57;2.70;;;;;;;9.86;100.00;101733.53;5073537;28;20127;-52
2022/09/19 03:51:33;;;;;;;11.60;2.80;;;;;;;9.87;100.00;101738.75;5070028;28;20047;-50
2022/09/19 03:54:04;;;;;;;12.05;3.15;;;;;;;9.87;100.00;101733.31;5071622;28;20102;-53
2022/09/19 03:56:38;;;;;;;11.65;2.88;;;;;;;9.89;100.00;101744.78;5060880;28;20063;-51
2022/09/19 03:59:07;;;;;;;11.10;3.00;;;;;;;9.90;100.00;101737.44;5058433;28;20052;-53
2022/09/19 04:01:39;;;;;;;17.02;2.92;;;;;;;9.90;100.00;101738.25;5066158;28;20041;-48
2022/09/19 04:04:07;;;;;;;12.60;3.08;;;;;;;9.89;100.00;101752.97;5087299;28;20384;-48
2022/09/19 04:06:40;;;;;;;12.02;3.40;;;;;;;9.88;100.00;101747.75;5050840;28;20507;-50
2022/09/19 04:09:09;;;;;;;10.13;2.55;;;;;;;9.87;100.00;101746.91;5070368;28;20036;-49
2022/09/19 04:11:38;;;;;;;9.57;2.95;;;;;;;9.88;100.00;101745.03;5070473;28;20059;-50
2022/09/19 04:14:05;;;;;;;10.35;3.10;;;;;;;9.89;100.00;101746.69;5064445;28;20037;-52
2022/09/19 04:16:33;;;;;;;12.13;2.90;;;;;;;9.90;100.00;101751.06;5052625;28;20041;-52
2022/09/19 04:19:01;;;;;;;9.98;2.95;;;;;;;9.89;100.00;101744.78;5068618;28;20525;-51
2022/09/19 04:22:04;;;;;;;12.27;3.15;;;;;;;9.90;100.00;101748.34;5010560;28;20041;-51
2022/09/19 04:24:42;;;;;;;12.40;3.00;;;;;;;9.87;100.00;101752.38;5038650;28;20052;-52
2022/09/19 04:27:34;;;;;;;10.02;2.45;;;;;;;9.87;100.00;101751.53;5069002;28;20037;-50
2022/09/19 04:30:03;;;;;;;10.90;2.90;;;;;;;9.86;100.00;101749.88;5071843;28;20047;-49
2022/09/19 04:32:31;;;;;;;11.82;3.10;;;;;;;9.86;100.00;101753.44;5057247;28;20048;-50
2022/09/19 04:34:59;;;;;;;11.32;3.25;;;;;;;9.85;100.00;101754.50;5042700;28;20500;-52
2022/09/19 04:37:29;;;;;;;9.82;3.15;;;;;;;9.86;100.00;101760.75;5070200;28;20033;-53
2022/09/19 04:40:16;;;;;;;13.50;2.92;;;;;;;9.86;100.00;101758.03;5071339;28;20056;-49
2022/09/19 04:42:45;;;;;;;9.63;2.85;;;;;;;9.85;100.00;101759.13;5055080;28;20051;-49
2022/09/19 04:45:20;;;;;;;16.08;3.83;;;;;;;9.84;100.00;101761.03;5058644;28;20045;-51
2022/09/19 04:48:05;;;;;;;15.13;3.08;;;;;;;9.85;100.00;101764.56;5063383;28;20116;-50
2022/09/19 04:50:34;;;;;;;13.90;2.97;;;;;;;9.87;100.00;101767.88;5067753;28;20433;-52
2022/09/19 04:53:03;;;;;;;11.45;2.95;;;;;;;9.89;100.00;101773.91;5062311;28;20722;-49
2022/09/19 04:55:31;;;;;;;15.93;2.95;;;;;;;9.88;100.00;101775.78;5043971;28;20048;-52
2022/09/19 04:58:06;;;;;;;11.32;3.22;;;;;;;9.88;100.00;101774.97;5061649;28;20041;-55
2022/09/19 05:00:39;;;;;;;11.73;3.33;;;;;;;9.89;100.00;101779.34;5069563;28;20056;-55
2022/09/19 05:03:15;;;;;;;14.00;3.08;;;;;;;9.89;100.00;101782.09;5072557;28;20074;-54
2022/09/19 05:05:47;;;;;;;11.63;3.10;;;;;;;9.89;100.00;101784.81;5064295;28;20041;-58
2022/09/19 05:08:25;;;;;;;12.52;3.17;;;;;;;9.88;100.00;101783.94;5069746;28;20044;-57
2022/09/19 05:10:56;;;;;;;12.40;3.00;;;;;;;9.88;100.00;101785.84;5072540;28;20045;-54
2022/09/19 05:13:27;;;;;;;13.00;2.92;;;;;;;9.88;100.00;101791.28;5064320;28;20040;-58
2022/09/19 05:15:56;;;;;;;14.13;3.67;;;;;;;9.87;100.00;101792.38;5045732;28;20090;-55
2022/09/19 05:18:24;;;;;;;10.70;3.08;;;;;;;9.86;100.00;101794.28;5062277;28;20044;-55
2022/09/19 05:20:54;;;;;;;13.50;3.30;;;;;;;9.87;100.00;101792.38;5054073;28;20045;-58
2022/09/19 05:23:23;;;;;;;10.85;3.22;;;;;;;9.87;100.00;101790.47;5047675;28;20059;-57
2022/09/19 05:25:53;;;;;;;9.35;2.85;;;;;;;9.89;100.00;101796.50;5053549;28;20049;-54
2022/09/19 05:28:27;;;;;;;13.15;3.10;;;;;;;9.90;100.00;101797.34;5070541;28;20062;-56
2022/09/19 05:30:56;;;;;;;10.65;2.90;;;;;;;9.89;100.00;101793.78;4355344;28;10001828;-54
2022/09/19 05:33:28;;;;;;;11.10;3.15;;;;;;;9.90;100.00;101800.06;5035272;28;20065;-55
2022/09/19 05:36:01;;;;;;;11.80;3.08;;;;;;;9.89;100.00;101796.50;5052051;28;20117;-57
2022/09/19 05:38:48;;;;;;;12.60;3.33;;;;;;;9.90;100.00;101802.78;5069143;28;20048;-58
2022/09/19 05:41:38;;;;;;;10.25;3.42;;;;;;;9.91;100.00;101815.31;5055358;28;20048;-53
2022/09/19 05:44:16;;;;;;;9.98;2.92;;;;;;;9.92;100.00;101814.25;5064878;28;20032;-54
2022/09/19 05:46:50;;;;;;;10.73;3.10;;;;;;;9.95;100.00;101816.50;5066469;28;20052;-57
2022/09/19 05:49:18;;;;;;;10.30;2.90;;;;;;;9.97;100.00;101822.53;5069158;28;20101;-57
2022/09/19 05:51:45;;;;;;;13.75;3.78;;;;;;;9.99;100.00;101812.22;5070632;28;20522;-55
2022/09/19 05:54:18;;;;;;;15.20;4.93;;;;;;;10.00;100.00;101828.31;5068846;28;20036;-58
2022/09/19 05:57:05;;;;;;;14.32;3.70;;;;;;;10.02;100.00;101825.34;5058402;28;20368;-55
2022/09/19 05:59:33;;;;;;;17.42;6.15;;;;;;;10.02;100.00;101822.63;5071038;28;20036;-54
2022/09/19 06:02:01;;;;;;;11.73;3.60;;;;;;;10.01;100.00;101823.72;5062649;28;20514;-53
2022/09/19 06:04:45;;;;;;;15.23;3.83;;;;;;;10.00;100.00;101820.16;5068577;28;20538;-54
2022/09/19 06:07:15;;;;;;;12.52;3.42;;;;;;;10.02;100.00;101825.34;5051979;28;20033;-58
2022/09/19 06:09:45;;;;;;;12.85;3.30;;;;;;;10.04;100.00;101823.22;5062291;28;20036;-55
2022/09/19 06:12:14;;;;;;;15.10;3.42;;;;;;;10.05;100.00;101830.31;5069901;28;20105;-55
2022/09/19 06:14:42;;;;;;;21.67;4.75;;;;;;;10.05;100.00;101829.50;5070526;28;20049;-54
2022/09/19 06:17:13;;;;;;;14.55;3.88;;;;;;;10.07;100.00;101828.19;5067512;28;20405;-55
2022/09/19 06:19:57;;;;;;;12.85;2.95;;;;;;;10.09;100.00;101831.50;5054273;28;20655;-53
2022/09/19 06:22:32;;;;;;;12.60;3.22;;;;;;;10.12;100.00;101836.47;5070915;28;20045;-55
2022/09/19 06:25:03;;;;;;;12.13;3.00;;;;;;;10.17;100.00;101836.59;5070617;28;20048;-53
2022/09/19 06:27:31;;;;;;;10.75;2.92;;;;;;;10.22;100.00;101836.69;5051808;28;20055;-55
2022/09/19 06:30:01;;;;;;;8.13;3.13;;;;;;;10.21;100.00;101834.22;5059395;28;20044;-54
2022/09/19 06:32:38;;;;;;;12.32;3.53;;;;;;;10.20;100.00;101836.09;5068338;28;20047;-54
2022/09/19 06:35:18;;;;;;;13.45;3.75;;;;;;;10.22;100.00;101841.28;5060901;28;20495;-56
2022/09/19 06:37:47;;;;;;;11.38;3.08;;;;;;;10.26;100.00;101845.19;5049947;28;20047;-54
2022/09/19 06:40:18;;;;;;;10.02;3.00;;;;;;;10.30;100.00;101848.31;5061807;28;20391;-55
2022/09/19 06:42:55;;;;;;;12.80;3.40;;;;;;;10.34;100.00;101849.47;5070184;28;20051;-54
2022/09/19 06:45:40;;;;;;;10.90;3.10;;;;;;;10.36;100.00;101850.06;5059819;28;20045;-53
2022/09/19 06:48:35;;;;;;;10.88;3.17;;;;;;;10.39;100.00;101855.03;5063674;28;20037;-53
2022/09/19 06:51:15;;;;;;;14.13;3.47;;;;;;;10.38;100.00;101861.56;5069877;28;20571;-52
2022/09/19 06:53:47;;;;;;;10.88;3.15;;;;;;;10.38;100.00;101862.38;5069937;28;20695;-53
2022/09/19 06:56:15;;;;;;;12.40;3.20;;;;;;;10.42;100.00;101868.19;5053430;28;20048;-51
2022/09/19 06:58:43;;;;;;;16.98;3.92;;;;;;;10.43;100.00;101867.91;5056781;28;20044;-52
2022/09/19 07:01:11;;;;;;;12.35;3.33;;;;;;;10.46;100.00;101872.06;5083326;28;20055;-50
2022/09/19 07:03:41;;;;;;;12.32;3.20;;;;;;;10.50;100.00;101881.41;5066193;28;20052;-53
2022/09/19 07:06:13;;;;;;;13.20;3.03;;;;;;;10.53;100.00;101880.09;5050886;28;20043;-52
2022/09/19 07:08:58;;;;;;;10.43;3.20;;;;;;;10.57;100.00;101879.38;5066544;28;20060;-52
2022/09/19 07:11:26;;;;;;;14.60;3.85;;;;;;;10.62;100.00;101884.94;5056739;28;20052;-54
2022/09/19 07:13:57;;;;;;;13.05;3.55;;;;;;;10.69;100.00;101883.97;5066295;28;20072;-54
2022/09/19 07:16:25;;;;;;;13.05;3.20;;;;;;;10.74;100.00;101889.53;5069794;28;20051;-52
2022/09/19 07:18:53;;;;;;;13.38;2.83;;;;;;;10.78;100.00;101890.69;5068163;28;20037;-52
2022/09/19 07:21:56;;;;;;;13.02;3.30;;;;;;;10.82;100.00;101894.56;5050861;28;20040;-53
2022/09/19 07:24:49;;;;;;;12.02;3.25;;;;;;;10.87;100.00;101897.41;5058239;28;20063;-52
2022/09/19 07:27:26;;;;;;;15.52;4.00;;;;;;;10.92;100.00;101905.69;5067763;28;20052;-54
2022/09/19 07:29:55;;;;;;;17.30;3.90;;;;;;;10.96;100.00;101900.56;5065837;28;20056;-55
2022/09/19 07:32:23;;;;;;;14.20;3.97;;;;;;;11.00;100.00;101899.84;5064477;28;20053;-57
2022/09/19 07:34:51;;;;;;;16.45;3.50;;;;;;;11.03;100.00;101910.25;5031904;28;20511;-52
2022/09/19 07:37:19;;;;;;;11.32;2.83;;;;;;;11.02;100.00;101910.50;5062699;28;20467;-50
2022/09/19 07:39:54;;;;;;;18.70;4.90;;;;;;;11.03;100.00;101906.69;5065359;28;20460;-49
2022/09/19 07:42:48;;;;;;;16.42;3.90;;;;;;;11.03;100.00;101912.97;5067134;28;20462;-50
2022/09/19 07:45:52;;;;;;;16.42;3.78;;;;;;;11.05;100.00;101915.47;5058359;28;20052;-49
2022/09/19 07:48:43;;;;;;;15.18;3.80;;;;;;;11.05;100.00;101910.03;5064885;28;20040;-50
2022/09/19 07:51:30;;;;;;;11.88;4.22;;;;;;;11.08;100.00;101914.97;5069535;28;20795;-50
2022/09/19 07:53:58;;;;;;;14.25;3.50;;;;;;;11.11;100.00;101913.66;5059177;28;20473;-49
2022/09/19 07:56:26;;;;;;;11.90;3.05;;;;;;;11.13;100.00;101917.78;5055522;28;20106;-51
2022/09/19 07:58:54;;;;;;;11.05;2.92;;;;;;;11.16;100.00;101917.31;5066715;28;20044;-50
2022/09/19 08:01:25;;;;;;;12.80;2.88;;;;;;;11.18;100.00;101914.34;5051535;28;20045;-48
2022/09/19 08:04:05;;;;;;;11.65;3.15;;;;;;;11.22;100.00;101916.31;5069397;28;20121;-53
2022/09/19 08:06:58;;;;;;;13.77;3.30;;;;;;;11.26;100.00;101922.13;5053355;28;20503;-53
2022/09/19 08:09:26;;;;;;;17.85;3.13;;;;;;;11.29;100.00;101924.38;5063116;28;20067;-48
2022/09/19 08:11:54;;;;;;;10.95;2.75;;;;;;;11.33;100.00;101928.28;5066772;28;20562;-51
2022/09/19 08:14:24;;;;;;;12.57;3.05;;;;;;;11.36;100.00;101935.94;5068869;28;20444;-49
2022/09/19 08:16:53;;;;;;;10.25;3.38;;;;;;;11.39;100.00;101938.19;5068965;28;20103;-46
2022/09/19 08:19:21;;;;;;;9.82;2.63;;;;;;;11.41;100.00;101930.56;5065193;28;20056;-49
2022/09/19 08:21:50;;;;;;;12.50;2.88;;;;;;;11.44;100.00;101934.72;5066644;28;20159;-51
2022/09/19 08:24:18;;;;;;;12.15;2.85;;;;;;;11.48;100.00;101935.88;5035917;28;20097;-49
2022/09/19 08:26:48;;;;;;;9.00;2.83;;;;;;;11.50;100.00;101950.13;5056455;28;20066;-51
2022/09/19 08:29:17;;;;;;;11.95;2.92;;;;;;;11.51;100.00;101947.13;5062075;28;20381;-48
2022/09/19 08:31:56;;;;;;;15.02;3.15;;;;;;;11.55;100.00;101952.09;5053805;28;20039;-47
2022/09/19 08:34:25;;;;;;;11.75;2.90;;;;;;;11.56;100.00;101954.56;5068193;28;20049;-49
2022/09/19 08:36:58;;;;;;;12.07;3.20;;;;;;;11.58;100.00;101960.63;5052121;28;20033;-50
2022/09/19 08:39:27;;;;;;;9.05;2.75;;;;;;;11.60;100.00;101957.66;5052613;28;20045;-49
2022/09/19 08:42:22;;;;;;;12.75;3.28;;;;;;;11.60;100.00;101954.94;5051623;28;20655;-49
2022/09/19 08:44:50;;;;;;;11.63;3.10;;;;;;;11.60;100.00;101955.75;5066287;28;20102;-49
2022/09/19 08:47:19;;;;;;;11.15;2.88;;;;;;;11.61;100.00;101962.84;5066733;28;20048;-53
2022/09/19 08:49:51;;;;;;;12.77;2.97;;;;;;;11.63;100.00;101959.88;5048720;28;20459;-48
2022/09/19 08:52:30;;;;;;;11.73;2.90;;;;;;;11.66;100.00;101962.09;5066496;28;20032;-58
2022/09/19 08:55:01;;;;;;;15.20;3.15;;;;;;;11.69;100.00;101965.19;5062544;28;20457;-48
2022/09/19 08:57:58;;;;;;;16.02;3.83;;;;;;;11.74;100.00;101956.25;5056461;28;20033;-50
2022/09/19 09:00:40;;;;;;;13.35;3.55;;;;;;;11.78;100.00;101954.66;5053647;28;20069;-50
2022/09/19 09:03:14;;;;;;;14.25;3.72;;;;;;;11.80;100.00;101955.25;5068241;28;20044;-48
2022/09/19 09:06:35;;;;;;;14.55;3.42;;;;;;;11.82;100.00;101960.47;5024871;28;20049;-49
2022/09/19 09:09:14;;;;;;;10.77;2.70;;;;;;;11.83;100.00;101954.75;5063068;28;20055;-49
2022/09/19 09:12:07;;;;;;;9.88;2.92;;;;;;;11.86;100.00;101958.91;5059160;28;20367;-48
2022/09/19 09:15:01;;;;;;;14.43;3.40;;;;;;;11.91;100.00;101964.47;5066331;28;20051;-48
2022/09/19 09:18:14;;;;;;;14.00;4.68;;;;;;;12.02;100.00;101960.00;5041166;28;20040;-49
2022/09/19 09:21:13;;;;;;;14.40;3.60;;;;;;;12.11;100.00;101953.03;5079702;28;20033;-49
2022/09/19 09:23:45;;;;;;;14.27;3.42;;;;;;;12.22;100.00;101954.84;5039169;28;20286;-48
2022/09/19 09:26:40;;;;;;;12.43;3.47;;;;;;;12.31;100.00;101956.06;5053701;28;20067;-49
2022/09/19 09:29:37;;;;;;;20.77;4.03;;;;;;;12.40;100.00;101950.97;5052944;28;20036;-50
2022/09/19 09:32:26;;;;;;;16.35;4.10;;;;;;;12.50;100.00;101953.03;5052724;28;20136;-47
2022/09/19 09:34:58;;;;;;;;;;;;;;;12.56;100.00;101952.84;5043781;28;20052;-49
2022/09/19 09:37:57;;;;;;;15.43;3.00;;;;;;;12.67;100.00;101952.97;5052489;28;20383;-47
2022/09/19 09:44:16;;;;;;;15.93;3.72;;;;;;;12.83;97.90;101956.72;5063347;28;20044;-49
2022/09/19 09:47:18;;;;;;;14.15;3.17;;;;;;;12.88;96.03;101954.06;5051927;28;20041;-49
2022/09/19 09:49:46;;;;;;;10.88;2.55;;;;;;;12.94;94.81;101955.75;5050426;28;20041;-48
2022/09/19 09:52:38;;;;;;;17.25;3.83;;;;;;;13.05;96.23;101965.72;5062678;28;20055;-50
2022/09/19 09:58:22;;;;;;;14.88;3.58;;;;;;;13.14;95.61;101956.00;5071059;28;20452;-49
2022/09/19 10:04:33;;;;;;;17.42;3.50;;;;;;;13.21;92.95;101973.03;5064487;28;20522;-48
2022/09/19 10:07:24;;;;;;;13.93;3.58;;;;;;;13.29;90.22;101970.94;5064184;28;20051;-49
2022/09/19 10:09:57;;;;;;;14.50;3.17;;;;;;;13.31;91.88;101966.03;5065004;28;20056;-50
2022/09/19 10:12:28;;;;;;;14.57;3.22;;;;;;;13.28;93.08;101963.84;5070761;28;20048;-49
2022/09/19 10:15:21;;;;;;;12.90;3.05;;;;;;;13.22;93.20;101963.72;5051039;28;20052;-47
2022/09/19 10:18:05;;;;;;;13.77;3.22;;;;;;;13.18;95.25;101965.34;5038577;28;20041;-46
2022/09/19 10:20:49;;;;;;;13.10;3.83;;;;;;;13.20;95.36;101985.06;5064476;28;20063;-47
2022/09/19 10:23:29;;;;;;;12.20;3.30;;;;;;;13.20;93.43;102000.66;5070090;28;20402;-51
2022/09/19 10:26:04;;;;;;;9.57;2.55;;;;;;;13.05;93.91;102009.50;5050363;28;20045;-49
2022/09/19 10:28:37;;;;;;;9.35;2.40;;;;;;;12.88;96.82;101992.34;5051888;28;20047;-49
2022/09/19 10:31:34;;;;;;;7.35;1.85;;;;;;;12.75;99.49;101988.91;5065643;28;20097;-48
2022/09/19 10:34:30;;;;;;;9.75;2.55;;;;;;;12.66;100.00;101984.97;5053778;28;20047;-49
2022/09/19 10:37:12;;;;;;;5.63;2.30;;;;;;;12.63;100.00;101976.41;5049481;28;20045;-48
2022/09/19 10:39:48;;;;;;;8.77;2.58;;;;;;;12.63;100.00;101977.28;5051483;28;20044;-49
2022/09/19 10:42:35;;;;;;;11.65;2.85;;;;;;;12.67;100.00;101964.72;5070858;28;20046;-50
2022/09/19 10:45:17;;;;;;;12.48;3.10;;;;;;;12.78;100.00;101982.94;5070145;28;20045;-48
2022/09/19 10:47:47;;;;;;;10.48;2.28;;;;;;;12.85;100.00;101970.97;5054237;28;20044;-49
2022/09/19 10:50:20;;;;;;;10.13;3.28;;;;;;;12.93;100.00;101967.78;5044825;28;20149;-48
2022/09/19 10:53:03;;;;;;;9.20;2.97;;;;;;;13.02;100.00;101968.16;5055076;28;20546;-48
2022/09/19 10:55:34;;;;;;;11.55;2.55;;;;;;;13.18;100.00;101987.25;5050157;28;20066;-52
2022/09/19 10:58:16;;;;;;;11.88;2.88;;;;;;;13.18;100.00;101987.25;5043505;28;20418;-49
2022/09/19 11:00:56;;;;;;;11.77;2.75;;;;;;;12.95;100.00;101980.13;5043891;28;20693;-49
2022/09/19 11:03:35;;;;;;;14.70;2.70;;;;;;;12.78;100.00;101988.41;5050945;28;20056;-49
2022/09/19 11:06:08;;;;;;;11.20;2.63;;;;;;;12.74;100.00;101986.41;5053585;28;20507;-48
2022/09/19 11:08:44;;;;;;;10.82;2.85;;;;;;;12.70;100.00;101985.25;5066897;28;20150;-48
2022/09/19 11:11:29;;;;;;;12.43;2.70;;;;;;;12.68;100.00;101990.19;5053333;28;20051;-49
2022/09/19 11:14:10;;;;;;;9.55;2.75;;;;;;;12.69;100.00;101984.44;5070348;28;20302;-50
2022/09/19 11:17:18;;;;;;;10.68;2.75;;;;;;;12.70;100.00;101986.13;5071113;28;20044;-50
2022/09/19 11:20:16;;;;;;;9.38;2.70;;;;;;;12.73;100.00;101985.59;5049511;28;20041;-51
2022/09/19 11:23:28;;;;;;;11.85;2.88;;;;;;;12.80;100.00;101988.16;5047594;28;20044;-49
2022/09/19 11:26:08;;;;;;;9.10;2.85;;;;;;;12.83;100.00;101976.69;5058803;28;20479;-49
2022/09/19 11:29:06;;;;;;;11.05;2.55;;;;;;;12.87;100.00;101979.72;5063428;28;20070;-47
2022/09/19 11:32:06;;;;;;;10.50;2.88;;;;;;;12.89;100.00;101981.16;5076577;28;20037;-49
2022/09/19 11:35:32;;;;;;;12.15;3.20;;;;;;;12.93;100.00;101978.72;5068578;28;20056;-51
2022/09/19 11:38:41;;;;;;;10.30;2.45;;;;;;;12.98;100.00;101979.59;5064621;28;20037;-49
2022/09/19 11:41:41;;;;;;;12.65;3.10;;;;;;;13.12;100.00;101982.78;5073058;28;20049;-48
2022/09/19 11:44:31;;;;;;;12.40;3.30;;;;;;;13.21;97.19;101978.50;5058855;28;20110;-50
2022/09/19 11:47:32;;;;;;;11.43;2.92;;;;;;;13.36;96.38;101988.00;5065968;28;20044;-51
2022/09/19 11:50:16;;;;;;;15.40;2.92;;;;;;;13.43;92.01;101983.97;5046122;28;20044;-52
2022/09/19 11:52:56;;;;;;;14.32;2.85;;;;;;;13.51;92.93;101973.63;5057449;28;20033;-50
2022/09/19 11:55:50;;;;;;;13.40;2.97;;;;;;;13.54;86.74;101973.09;5050604;28;20070;-50
2022/09/19 11:58:29;;;;;;;8.63;2.47;;;;;;;13.56;84.84;101971.75;5062718;28;20056;-50
2022/09/19 12:01:15;;;;;;;8.55;2.38;;;;;;;13.55;88.87;101972.84;5056940;28;20048;-54
2022/09/19 12:04:08;;;;;;;12.00;2.45;;;;;;;13.55;87.24;101981.06;5056410;28;20049;-50
2022/09/19 12:07:15;;;;;;;11.57;2.85;;;;;;;13.57;87.22;101983.56;5069647;28;20041;-53
2022/09/19 12:09:55;;;;;;;11.70;2.40;;;;;;;13.58;88.17;101975.06;5067251;28;20044;-51
2022/09/19 12:12:26;;;;;;;13.18;2.58;;;;;;;13.58;89.66;101971.50;5070592;28;20056;-53
2022/09/19 12:15:22;;;;;;;12.25;3.17;;;;;;;13.56;97.53;101966.28;5063681;28;20041;-52
2022/09/19 12:18:22;;;;;;;14.23;2.58;;;;;;;13.46;99.95;101971.66;5053245;28;20055;-53
2022/09/19 12:20:54;;;;;;;10.52;2.70;;;;;;;13.42;100.00;102009.69;5058868;28;20048;-50